sensor_id;sensor_type;location;lat;lon;timestamp;P1;P2;P0
75960;PMS7003;64644;48.914;2.254;2023-09-08T00:00:46;19.50;19.00;16.00
75960;PMS7003;64644;48.914;2.254;2023-09-08T00:03:12;21.75;20.50;16.25
75960;PMS7003;64644;48.914;2.254;2023-09-08T00:05:37;22.00;21.50;17.50
75960;PMS7003;64644;48.914;2.254;2023-09-08T00:08:03;26.25;23.25;16.50
75960;PMS7003;64644;48.914;2.254;2023-09-08T00:10:29;23.00;22.25;15.00
75960;PMS7003;64644;48.914;2.254;2023-09-08T00:12:54;18.50;18.50;14.75
75960;PMS7003;64644;48.914;2.254;2023-09-08T00:15:19;21.00;19.75;15.50
75960;PMS7003;64644;48.914;2.254;2023-09-08T00:17:45;19.75;18.25;13.25
75960;PMS7003;64644;48.914;2.254;2023-09-08T00:20:12;26.25;19.75;12.75
75960;PMS7003;64644;48.914;2.254;2023-09-08T00:22:38;22.25;21.50;15.00
75960;PMS7003;64644;48.914;2.254;2023-09-08T00:25:04;24.00;22.00;16.75
75960;PMS7003;64644;48.914;2.254;2023-09-08T00:27:30;24.25;22.75;16.00
75960;PMS7003;64644;48.914;2.254;2023-09-08T00:29:56;22.75;20.50;15.50
75960;PMS7003;64644;48.914;2.254;2023-09-08T00:32:22;21.50;21.25;15.25
75960;PMS7003;64644;48.914;2.254;2023-09-08T00:34:47;21.00;20.50;16.00
75960;PMS7003;64644;48.914;2.254;2023-09-08T00:37:12;24.75;21.50;16.00
75960;PMS7003;64644;48.914;2.254;2023-09-08T00:39:38;19.25;19.25;14.00
75960;PMS7003;64644;48.914;2.254;2023-09-08T00:42:03;10.00;10.00;4.50
75960;PMS7003;64644;48.914;2.254;2023-09-08T00:44:29;24.75;23.25;18.25
75960;PMS7003;64644;48.914;2.254;2023-09-08T00:46:55;21.75;21.75;16.50
75960;PMS7003;64644;48.914;2.254;2023-09-08T00:49:21;21.25;21.25;14.00
75960;PMS7003;64644;48.914;2.254;2023-09-08T00:51:46;14.25;14.25;12.25
75960;PMS7003;64644;48.914;2.254;2023-09-08T00:54:12;24.00;21.25;16.25
75960;PMS7003;64644;48.914;2.254;2023-09-08T00:56:37;21.25;20.50;15.50
75960;PMS7003;64644;48.914;2.254;2023-09-08T00:59:04;25.00;22.25;16.75
75960;PMS7003;64644;48.914;2.254;2023-09-08T01:01:30;23.50;21.75;16.75
75960;PMS7003;64644;48.914;2.254;2023-09-08T01:03:56;16.25;16.25;14.00
75960;PMS7003;64644;48.914;2.254;2023-09-08T01:06:22;22.75;21.50;16.50
75960;PMS7003;64644;48.914;2.254;2023-09-08T01:08:48;26.75;21.75;16.75
75960;PMS7003;64644;48.914;2.254;2023-09-08T01:11:16;19.50;19.00;14.00
75960;PMS7003;64644;48.914;2.254;2023-09-08T01:13:44;20.75;20.75;13.75
75960;PMS7003;64644;48.914;2.254;2023-09-08T01:16:09;22.75;18.75;13.75
75960;PMS7003;64644;48.914;2.254;2023-09-08T01:18:34;20.00;19.25;14.00
75960;PMS7003;64644;48.914;2.254;2023-09-08T01:24:11;20.75;20.25;15.25
75960;PMS7003;64644;48.914;2.254;2023-09-08T01:26:45;21.75;20.75;14.25
75960;PMS7003;64644;48.914;2.254;2023-09-08T01:29:11;22.00;21.25;16.25
75960;PMS7003;64644;48.914;2.254;2023-09-08T01:31:38;21.25;21.25;16.75
75960;PMS7003;64644;48.914;2.254;2023-09-08T01:34:04;23.00;21.75;15.25
75960;PMS7003;64644;48.914;2.254;2023-09-08T01:36:32;19.25;18.25;14.50
75960;PMS7003;64644;48.914;2.254;2023-09-08T01:39:01;23.00;21.75;16.25
75960;PMS7003;64644;48.914;2.254;2023-09-08T01:41:26;20.00;20.00;15.25
75960;PMS7003;64644;48.914;2.254;2023-09-08T01:43:52;22.00;21.00;17.00
75960;PMS7003;64644;48.914;2.254;2023-09-08T01:46:17;20.00;20.00;15.50
75960;PMS7003;64644;48.914;2.254;2023-09-08T01:48:43;24.00;23.25;16.25
75960;PMS7003;64644;48.914;2.254;2023-09-08T01:51:08;21.25;19.25;13.75
75960;PMS7003;64644;48.914;2.254;2023-09-08T01:53:33;25.00;24.00;17.75
75960;PMS7003;64644;48.914;2.254;2023-09-08T01:55:59;22.25;22.00;15.00
75960;PMS7003;64644;48.914;2.254;2023-09-08T01:58:24;23.00;23.00;18.00
75960;PMS7003;64644;48.914;2.254;2023-09-08T02:00:50;24.50;21.25;15.50
75960;PMS7003;64644;48.914;2.254;2023-09-08T02:03:18;21.25;21.25;17.00
75960;PMS7003;64644;48.914;2.254;2023-09-08T02:05:44;23.50;22.75;16.50
75960;PMS7003;64644;48.914;2.254;2023-09-08T02:08:10;21.00;20.75;16.00
75960;PMS7003;64644;48.914;2.254;2023-09-08T02:10:35;23.50;21.75;17.50
75960;PMS7003;64644;48.914;2.254;2023-09-08T02:13:00;22.00;20.75;16.50
75960;PMS7003;64644;48.914;2.254;2023-09-08T02:15:26;23.50;23.00;18.25
75960;PMS7003;64644;48.914;2.254;2023-09-08T02:17:55;20.50;20.50;16.75
75960;PMS7003;64644;48.914;2.254;2023-09-08T02:20:21;5.00;5.00;1.50
75960;PMS7003;64644;48.914;2.254;2023-09-08T02:22:46;21.75;21.75;17.50
75960;PMS7003;64644;48.914;2.254;2023-09-08T02:25:15;23.00;23.00;18.50
75960;PMS7003;64644;48.914;2.254;2023-09-08T02:27:40;22.50;22.25;17.00
75960;PMS7003;64644;48.914;2.254;2023-09-08T02:30:06;25.25;24.00;19.75
75960;PMS7003;64644;48.914;2.254;2023-09-08T02:32:31;27.50;26.00;19.25
75960;PMS7003;64644;48.914;2.254;2023-09-08T02:34:57;23.50;23.50;19.50
75960;PMS7003;64644;48.914;2.254;2023-09-08T02:37:22;21.75;21.75;17.00
75960;PMS7003;64644;48.914;2.254;2023-09-08T02:39:47;24.00;22.00;17.75
75960;PMS7003;64644;48.914;2.254;2023-09-08T02:42:13;24.00;21.50;18.00
75960;PMS7003;64644;48.914;2.254;2023-09-08T02:44:38;24.00;24.00;18.50
75960;PMS7003;64644;48.914;2.254;2023-09-08T02:47:03;24.00;22.75;17.75
75960;PMS7003;64644;48.914;2.254;2023-09-08T02:49:31;24.00;24.00;19.50
75960;PMS7003;64644;48.914;2.254;2023-09-08T02:51:56;27.25;24.50;18.25
75960;PMS7003;64644;48.914;2.254;2023-09-08T02:54:22;28.50;27.00;19.75
75960;PMS7003;64644;48.914;2.254;2023-09-08T02:56:47;24.25;23.25;17.50
75960;PMS7003;64644;48.914;2.254;2023-09-08T02:59:12;24.25;24.25;17.50
75960;PMS7003;64644;48.914;2.254;2023-09-08T03:01:38;24.75;24.75;18.50
75960;PMS7003;64644;48.914;2.254;2023-09-08T03:04:03;27.50;26.75;19.75
75960;PMS7003;64644;48.914;2.254;2023-09-08T03:06:28;27.50;25.25;18.00
75960;PMS7003;64644;48.914;2.254;2023-09-08T03:08:54;29.00;26.50;19.75
75960;PMS7003;64644;48.914;2.254;2023-09-08T03:11:19;24.25;24.25;18.50
75960;PMS7003;64644;48.914;2.254;2023-09-08T03:13:44;24.75;24.25;18.75
75960;PMS7003;64644;48.914;2.254;2023-09-08T03:16:10;28.50;28.00;20.50
75960;PMS7003;64644;48.914;2.254;2023-09-08T03:18:37;27.75;27.75;19.75
75960;PMS7003;64644;48.914;2.254;2023-09-08T03:21:03;27.50;26.25;20.00
75960;PMS7003;64644;48.914;2.254;2023-09-08T03:23:38;29.50;29.50;20.00
75960;PMS7003;64644;48.914;2.254;2023-09-08T03:26:05;26.50;26.50;19.25
75960;PMS7003;64644;48.914;2.254;2023-09-08T03:28:31;27.75;27.75;20.25
75960;PMS7003;64644;48.914;2.254;2023-09-08T03:30:58;29.25;28.00;21.00
75960;PMS7003;64644;48.914;2.254;2023-09-08T03:33:23;29.50;29.00;20.75
75960;PMS7003;64644;48.914;2.254;2023-09-08T03:35:48;30.75;29.50;22.25
75960;PMS7003;64644;48.914;2.254;2023-09-08T03:38:14;34.00;29.25;21.50
75960;PMS7003;64644;48.914;2.254;2023-09-08T03:40:40;33.00;31.75;21.50
75960;PMS7003;64644;48.914;2.254;2023-09-08T03:43:05;29.75;28.00;21.00
75960;PMS7003;64644;48.914;2.254;2023-09-08T03:45:31;27.50;26.25;20.00
75960;PMS7003;64644;48.914;2.254;2023-09-08T03:47:56;30.75;30.25;21.25
75960;PMS7003;64644;48.914;2.254;2023-09-08T03:50:21;31.25;30.00;20.50
75960;PMS7003;64644;48.914;2.254;2023-09-08T03:52:48;29.75;27.00;20.00
75960;PMS7003;64644;48.914;2.254;2023-09-08T03:55:14;31.25;28.75;20.25
75960;PMS7003;64644;48.914;2.254;2023-09-08T03:57:39;30.75;29.75;21.75
75960;PMS7003;64644;48.914;2.254;2023-09-08T04:00:04;27.00;24.25;19.75
75960;PMS7003;64644;48.914;2.254;2023-09-08T04:02:31;29.25;28.00;20.00
75960;PMS7003;64644;48.914;2.254;2023-09-08T04:04:58;31.25;29.00;20.50
75960;PMS7003;64644;48.914;2.254;2023-09-08T04:07:23;28.25;28.25;20.00
75960;PMS7003;64644;48.914;2.254;2023-09-08T04:09:49;27.25;27.00;19.25
75960;PMS7003;64644;48.914;2.254;2023-09-08T04:12:14;28.00;28.00;20.25
75960;PMS7003;64644;48.914;2.254;2023-09-08T04:14:40;30.75;29.00;21.50
75960;PMS7003;64644;48.914;2.254;2023-09-08T04:17:06;35.50;32.50;22.50
75960;PMS7003;64644;48.914;2.254;2023-09-08T04:19:31;31.75;30.00;21.50
75960;PMS7003;64644;48.914;2.254;2023-09-08T04:21:56;29.50;27.50;20.25
75960;PMS7003;64644;48.914;2.254;2023-09-08T04:24:21;31.00;29.25;20.00
75960;PMS7003;64644;48.914;2.254;2023-09-08T04:26:47;22.75;22.75;19.50
75960;PMS7003;64644;48.914;2.254;2023-09-08T04:29:12;29.25;28.75;20.25
75960;PMS7003;64644;48.914;2.254;2023-09-08T04:31:37;29.50;28.00;20.00
75960;PMS7003;64644;48.914;2.254;2023-09-08T04:34:03;28.50;27.00;20.25
75960;PMS7003;64644;48.914;2.254;2023-09-08T04:36:28;29.00;27.75;20.00
75960;PMS7003;64644;48.914;2.254;2023-09-08T04:38:55;29.75;29.75;20.00
75960;PMS7003;64644;48.914;2.254;2023-09-08T04:41:21;32.25;29.50;20.75
75960;PMS7003;64644;48.914;2.254;2023-09-08T04:43:46;26.75;26.00;20.00
75960;PMS7003;64644;48.914;2.254;2023-09-08T04:46:11;32.00;30.25;22.00
75960;PMS7003;64644;48.914;2.254;2023-09-08T04:48:37;29.75;29.00;21.25
75960;PMS7003;64644;48.914;2.254;2023-09-08T04:51:02;31.25;27.75;21.50
75960;PMS7003;64644;48.914;2.254;2023-09-08T04:53:27;30.50;30.00;21.75
75960;PMS7003;64644;48.914;2.254;2023-09-08T04:55:53;26.75;25.50;20.75
75960;PMS7003;64644;48.914;2.254;2023-09-08T04:58:18;29.00;27.00;20.00
75960;PMS7003;64644;48.914;2.254;2023-09-08T05:00:44;29.75;27.75;21.00
75960;PMS7003;64644;48.914;2.254;2023-09-08T05:03:09;28.75;28.00;22.00
75960;PMS7003;64644;48.914;2.254;2023-09-08T05:05:34;32.25;29.75;20.25
75960;PMS7003;64644;48.914;2.254;2023-09-08T05:07:59;31.50;28.75;21.00
75960;PMS7003;64644;48.914;2.254;2023-09-08T05:10:25;25.75;25.75;18.50
75960;PMS7003;64644;48.914;2.254;2023-09-08T05:12:51;29.00;27.50;19.75
75960;PMS7003;64644;48.914;2.254;2023-09-08T05:15:17;30.75;27.75;20.00
75960;PMS7003;64644;48.914;2.254;2023-09-08T05:17:42;27.50;27.50;20.75
75960;PMS7003;64644;48.914;2.254;2023-09-08T05:20:08;31.25;28.75;20.00
75960;PMS7003;64644;48.914;2.254;2023-09-08T05:22:34;28.00;25.50;19.00
75960;PMS7003;64644;48.914;2.254;2023-09-08T05:24:59;30.75;29.25;20.50
75960;PMS7003;64644;48.914;2.254;2023-09-08T05:27:25;28.75;28.75;19.25
75960;PMS7003;64644;48.914;2.254;2023-09-08T05:29:50;29.25;27.50;20.50
75960;PMS7003;64644;48.914;2.254;2023-09-08T05:32:15;27.75;26.50;20.00
75960;PMS7003;64644;48.914;2.254;2023-09-08T05:34:41;26.50;26.00;20.00
75960;PMS7003;64644;48.914;2.254;2023-09-08T05:37:07;30.00;29.25;20.75
75960;PMS7003;64644;48.914;2.254;2023-09-08T05:39:33;29.00;26.50;20.00
75960;PMS7003;64644;48.914;2.254;2023-09-08T05:41:59;26.25;26.00;19.50
75960;PMS7003;64644;48.914;2.254;2023-09-08T05:44:24;28.00;28.00;20.00
75960;PMS7003;64644;48.914;2.254;2023-09-08T05:46:50;25.75;24.00;17.00
75960;PMS7003;64644;48.914;2.254;2023-09-08T05:49:15;25.00;24.25;19.50
75960;PMS7003;64644;48.914;2.254;2023-09-08T05:51:42;27.50;25.25;19.50
75960;PMS7003;64644;48.914;2.254;2023-09-08T05:54:08;29.75;26.50;20.00
75960;PMS7003;64644;48.914;2.254;2023-09-08T05:56:34;26.75;25.50;20.00
75960;PMS7003;64644;48.914;2.254;2023-09-08T05:58:59;31.25;29.75;20.00
75960;PMS7003;64644;48.914;2.254;2023-09-08T06:01:26;33.50;31.25;22.00
75960;PMS7003;64644;48.914;2.254;2023-09-08T06:03:51;29.50;28.50;21.00
75960;PMS7003;64644;48.914;2.254;2023-09-08T06:06:17;30.25;30.00;21.25
75960;PMS7003;64644;48.914;2.254;2023-09-08T06:08:42;30.25;29.50;20.75
75960;PMS7003;64644;48.914;2.254;2023-09-08T06:11:07;33.25;29.75;21.25
75960;PMS7003;64644;48.914;2.254;2023-09-08T06:13:33;29.25;26.50;20.00
75960;PMS7003;64644;48.914;2.254;2023-09-08T06:15:58;29.50;28.50;20.50
75960;PMS7003;64644;48.914;2.254;2023-09-08T06:18:23;27.00;27.00;20.00
75960;PMS7003;64644;48.914;2.254;2023-09-08T06:20:49;27.25;25.50;20.00
75960;PMS7003;64644;48.914;2.254;2023-09-08T06:23:14;28.75;27.25;20.75
75960;PMS7003;64644;48.914;2.254;2023-09-08T06:25:40;28.25;25.75;19.25
75960;PMS7003;64644;48.914;2.254;2023-09-08T06:28:05;29.25;27.75;19.75
75960;PMS7003;64644;48.914;2.254;2023-09-08T06:30:31;28.25;28.25;20.00
75960;PMS7003;64644;48.914;2.254;2023-09-08T06:32:56;33.00;29.00;20.00
75960;PMS7003;64644;48.914;2.254;2023-09-08T06:35:22;27.00;27.00;19.50
75960;PMS7003;64644;48.914;2.254;2023-09-08T06:37:47;23.75;23.75;17.00
75960;PMS7003;64644;48.914;2.254;2023-09-08T06:40:12;29.25;28.75;20.00
75960;PMS7003;64644;48.914;2.254;2023-09-08T06:42:38;34.75;30.00;20.75
75960;PMS7003;64644;48.914;2.254;2023-09-08T06:45:03;27.25;27.00;20.75
75960;PMS7003;64644;48.914;2.254;2023-09-08T06:47:29;30.75;29.25;21.75
75960;PMS7003;64644;48.914;2.254;2023-09-08T06:49:54;31.75;30.00;20.50
75960;PMS7003;64644;48.914;2.254;2023-09-08T06:52:20;31.75;30.00;20.00
75960;PMS7003;64644;48.914;2.254;2023-09-08T06:54:45;32.25;29.75;21.00
75960;PMS7003;64644;48.914;2.254;2023-09-08T06:57:13;30.75;26.50;20.00
75960;PMS7003;64644;48.914;2.254;2023-09-08T06:59:39;32.75;29.50;21.00
75960;PMS7003;64644;48.914;2.254;2023-09-08T07:02:04;29.00;28.00;21.00
75960;PMS7003;64644;48.914;2.254;2023-09-08T07:04:29;32.00;30.25;20.50
75960;PMS7003;64644;48.914;2.254;2023-09-08T07:06:55;31.00;29.75;21.00
75960;PMS7003;64644;48.914;2.254;2023-09-08T07:09:21;31.25;29.50;21.50
75960;PMS7003;64644;48.914;2.254;2023-09-08T07:11:46;31.25;27.75;19.75
75960;PMS7003;64644;48.914;2.254;2023-09-08T07:14:11;34.00;31.00;20.50
75960;PMS7003;64644;48.914;2.254;2023-09-08T07:16:37;33.00;30.00;20.25
75960;PMS7003;64644;48.914;2.254;2023-09-08T07:19:02;30.00;28.50;20.50
75960;PMS7003;64644;48.914;2.254;2023-09-08T07:21:28;31.25;29.50;20.00
75960;PMS7003;64644;48.914;2.254;2023-09-08T07:23:53;30.00;29.25;20.00
75960;PMS7003;64644;48.914;2.254;2023-09-08T07:26:19;31.25;28.75;21.00
75960;PMS7003;64644;48.914;2.254;2023-09-08T07:28:45;27.50;27.50;20.75
75960;PMS7003;64644;48.914;2.254;2023-09-08T07:31:10;35.25;29.75;20.75
75960;PMS7003;64644;48.914;2.254;2023-09-08T07:33:36;31.00;30.00;22.00
75960;PMS7003;64644;48.914;2.254;2023-09-08T07:36:05;34.25;31.50;20.75
75960;PMS7003;64644;48.914;2.254;2023-09-08T07:38:31;28.75;27.75;20.00
75960;PMS7003;64644;48.914;2.254;2023-09-08T07:40:57;33.75;30.25;21.00
75960;PMS7003;64644;48.914;2.254;2023-09-08T07:43:24;29.00;28.50;20.00
75960;PMS7003;64644;48.914;2.254;2023-09-08T07:45:50;31.00;27.75;20.00
75960;PMS7003;64644;48.914;2.254;2023-09-08T07:48:15;29.75;27.75;20.50
75960;PMS7003;64644;48.914;2.254;2023-09-08T07:50:40;25.75;25.50;20.00
75960;PMS7003;64644;48.914;2.254;2023-09-08T07:53:06;30.50;29.50;20.25
75960;PMS7003;64644;48.914;2.254;2023-09-08T07:55:31;32.25;29.75;20.75
75960;PMS7003;64644;48.914;2.254;2023-09-08T07:57:57;27.50;27.00;20.00
75960;PMS7003;64644;48.914;2.254;2023-09-08T08:00:23;28.75;28.50;20.00
75960;PMS7003;64644;48.914;2.254;2023-09-08T08:02:49;32.00;29.75;21.00
75960;PMS7003;64644;48.914;2.254;2023-09-08T08:05:16;30.50;28.00;20.50
75960;PMS7003;64644;48.914;2.254;2023-09-08T08:07:42;27.50;27.25;21.25
75960;PMS7003;64644;48.914;2.254;2023-09-08T08:10:09;33.75;30.50;22.50
75960;PMS7003;64644;48.914;2.254;2023-09-08T08:12:35;31.25;29.50;20.50
75960;PMS7003;64644;48.914;2.254;2023-09-08T08:15:01;29.50;29.00;20.25
75960;PMS7003;64644;48.914;2.254;2023-09-08T08:17:27;32.50;29.25;21.50
75960;PMS7003;64644;48.914;2.254;2023-09-08T08:19:54;32.75;31.50;21.25
75960;PMS7003;64644;48.914;2.254;2023-09-08T08:22:20;33.25;28.50;21.00
75960;PMS7003;64644;48.914;2.254;2023-09-08T08:24:46;30.25;28.00;19.50
75960;PMS7003;64644;48.914;2.254;2023-09-08T08:27:11;37.75;30.50;21.50
75960;PMS7003;64644;48.914;2.254;2023-09-08T08:29:36;25.25;21.75;18.00
75960;PMS7003;64644;48.914;2.254;2023-09-08T08:32:02;33.25;32.25;22.25
75960;PMS7003;64644;48.914;2.254;2023-09-08T08:34:28;32.50;31.25;21.50
75960;PMS7003;64644;48.914;2.254;2023-09-08T08:36:53;26.00;25.00;20.25
75960;PMS7003;64644;48.914;2.254;2023-09-08T08:39:19;35.00;31.25;21.50
75960;PMS7003;64644;48.914;2.254;2023-09-08T08:41:44;30.00;29.50;20.75
75960;PMS7003;64644;48.914;2.254;2023-09-08T08:44:10;34.25;32.25;21.25
75960;PMS7003;64644;48.914;2.254;2023-09-08T08:46:35;27.25;26.00;19.75
75960;PMS7003;64644;48.914;2.254;2023-09-08T08:49:02;28.75;25.25;20.50
75960;PMS7003;64644;48.914;2.254;2023-09-08T08:51:28;29.00;25.25;20.00
75960;PMS7003;64644;48.914;2.254;2023-09-08T08:53:56;22.75;22.75;16.50
75960;PMS7003;64644;48.914;2.254;2023-09-08T08:56:22;22.25;21.00;14.00
75960;PMS7003;64644;48.914;2.254;2023-09-08T08:58:49;24.75;23.75;17.50
75960;PMS7003;64644;48.914;2.254;2023-09-08T09:01:17;24.00;24.00;15.50
75960;PMS7003;64644;48.914;2.254;2023-09-08T09:03:44;23.50;20.75;16.25
75960;PMS7003;64644;48.914;2.254;2023-09-08T09:06:14;24.25;22.00;16.25
75960;PMS7003;64644;48.914;2.254;2023-09-08T09:08:40;18.50;18.50;14.75
75960;PMS7003;64644;48.914;2.254;2023-09-08T09:11:12;23.50;20.50;15.00
75960;PMS7003;64644;48.914;2.254;2023-09-08T09:13:37;23.75;21.00;16.00
75960;PMS7003;64644;48.914;2.254;2023-09-08T09:16:03;18.50;18.50;14.50
75960;PMS7003;64644;48.914;2.254;2023-09-08T09:18:29;20.75;20.50;15.50
75960;PMS7003;64644;48.914;2.254;2023-09-08T09:20:57;22.50;20.25;14.25
75960;PMS7003;64644;48.914;2.254;2023-09-08T09:23:31;19.25;19.25;13.25
75960;PMS7003;64644;48.914;2.254;2023-09-08T09:25:58;21.25;19.75;14.25
75960;PMS7003;64644;48.914;2.254;2023-09-08T09:28:24;17.50;17.25;12.25
75960;PMS7003;64644;48.914;2.254;2023-09-08T09:30:50;22.75;22.25;15.00
75960;PMS7003;64644;48.914;2.254;2023-09-08T09:33:17;14.75;14.50;11.75
75960;PMS7003;64644;48.914;2.254;2023-09-08T09:35:45;18.50;17.00;12.50
75960;PMS7003;64644;48.914;2.254;2023-09-08T09:38:12;16.50;16.50;13.50
75960;PMS7003;64644;48.914;2.254;2023-09-08T09:40:39;15.50;14.50;12.00
75960;PMS7003;64644;48.914;2.254;2023-09-08T09:43:05;15.25;14.00;11.75
75960;PMS7003;64644;48.914;2.254;2023-09-08T09:45:36;15.50;14.00;10.25
75960;PMS7003;64644;48.914;2.254;2023-09-08T09:48:02;19.00;18.00;13.25
75960;PMS7003;64644;48.914;2.254;2023-09-08T09:50:36;20.00;19.00;14.00
75960;PMS7003;64644;48.914;2.254;2023-09-08T09:53:09;17.75;17.00;13.25
75960;PMS7003;64644;48.914;2.254;2023-09-08T09:55:40;17.00;15.50;12.00
75960;PMS7003;64644;48.914;2.254;2023-09-08T09:58:06;15.00;14.00;10.75
75960;PMS7003;64644;48.914;2.254;2023-09-08T10:00:34;14.00;14.00;12.00
75960;PMS7003;64644;48.914;2.254;2023-09-08T10:03:00;18.50;18.50;13.75
75960;PMS7003;64644;48.914;2.254;2023-09-08T10:05:26;20.25;18.00;12.00
75960;PMS7003;64644;48.914;2.254;2023-09-08T10:07:52;14.75;12.50;10.00
75960;PMS7003;64644;48.914;2.254;2023-09-08T10:10:19;16.25;15.25;12.25
75960;PMS7003;64644;48.914;2.254;2023-09-08T10:12:53;13.75;13.75;11.25
75960;PMS7003;64644;48.914;2.254;2023-09-08T10:15:22;20.25;19.25;14.00
75960;PMS7003;64644;48.914;2.254;2023-09-08T10:17:57;17.50;14.25;10.25
75960;PMS7003;64644;48.914;2.254;2023-09-08T10:20:28;15.25;14.50;11.50
75960;PMS7003;64644;48.914;2.254;2023-09-08T10:22:56;21.25;16.00;11.50
75960;PMS7003;64644;48.914;2.254;2023-09-08T10:25:29;15.50;14.50;10.25
75960;PMS7003;64644;48.914;2.254;2023-09-08T10:28:00;14.50;13.50;10.50
75960;PMS7003;64644;48.914;2.254;2023-09-08T10:30:26;14.50;13.25;9.00
75960;PMS7003;64644;48.914;2.254;2023-09-08T10:32:51;14.00;13.25;9.50
75960;PMS7003;64644;48.914;2.254;2023-09-08T10:35:17;15.75;15.75;11.50
75960;PMS7003;64644;48.914;2.254;2023-09-08T10:37:44;14.75;13.75;11.00
75960;PMS7003;64644;48.914;2.254;2023-09-08T10:40:22;13.00;13.00;10.25
75960;PMS7003;64644;48.914;2.254;2023-09-08T10:42:49;16.00;16.00;12.25
75960;PMS7003;64644;48.914;2.254;2023-09-08T10:45:17;14.50;13.75;10.50
75960;PMS7003;64644;48.914;2.254;2023-09-08T10:50:19;17.50;15.75;11.75
75960;PMS7003;64644;48.914;2.254;2023-09-08T10:53:03;15.00;13.00;10.00
75960;PMS7003;64644;48.914;2.254;2023-09-08T10:56:03;12.00;12.00;10.00
75960;PMS7003;64644;48.914;2.254;2023-09-08T10:58:34;14.00;12.25;9.00
75960;PMS7003;64644;48.914;2.254;2023-09-08T11:01:03;15.75;14.25;11.75
75960;PMS7003;64644;48.914;2.254;2023-09-08T11:06:02;13.25;12.00;10.00
75960;PMS7003;64644;48.914;2.254;2023-09-08T11:08:28;16.00;14.50;11.00
75960;PMS7003;64644;48.914;2.254;2023-09-08T11:10:54;17.00;15.50;10.50
75960;PMS7003;64644;48.914;2.254;2023-09-08T11:13:20;14.00;13.00;10.00
75960;PMS7003;64644;48.914;2.254;2023-09-08T11:15:46;14.50;14.50;10.25
75960;PMS7003;64644;48.914;2.254;2023-09-08T11:18:11;13.00;12.50;10.00
75960;PMS7003;64644;48.914;2.254;2023-09-08T11:20:36;13.00;13.00;10.00
75960;PMS7003;64644;48.914;2.254;2023-09-08T11:23:02;14.50;13.00;11.00
75960;PMS7003;64644;48.914;2.254;2023-09-08T11:25:29;13.75;13.75;11.50
75960;PMS7003;64644;48.914;2.254;2023-09-08T11:27:57;14.50;14.00;12.00
75960;PMS7003;64644;48.914;2.254;2023-09-08T11:30:23;14.75;12.75;10.25
75960;PMS7003;64644;48.914;2.254;2023-09-08T11:32:50;12.75;12.50;9.25
75960;PMS7003;64644;48.914;2.254;2023-09-08T11:35:16;16.50;15.25;11.00
75960;PMS7003;64644;48.914;2.254;2023-09-08T11:37:41;12.75;12.75;10.25
75960;PMS7003;64644;48.914;2.254;2023-09-08T11:40:08;14.50;14.00;11.00
75960;PMS7003;64644;48.914;2.254;2023-09-08T11:42:37;11.00;11.00;8.50
75960;PMS7003;64644;48.914;2.254;2023-09-08T11:45:18;12.00;11.25;7.00
75960;PMS7003;64644;48.914;2.254;2023-09-08T11:47:46;11.50;10.50;8.25
75960;PMS7003;64644;48.914;2.254;2023-09-08T11:50:14;11.25;11.00;9.00
75960;PMS7003;64644;48.914;2.254;2023-09-08T11:52:43;13.75;13.75;10.25
75960;PMS7003;64644;48.914;2.254;2023-09-08T11:55:10;12.00;11.75;9.75
75960;PMS7003;64644;48.914;2.254;2023-09-08T11:57:37;14.00;12.25;10.00
75960;PMS7003;64644;48.914;2.254;2023-09-08T12:00:05;10.75;10.75;9.00
75960;PMS7003;64644;48.914;2.254;2023-09-08T12:02:34;13.00;12.75;9.00
75960;PMS7003;64644;48.914;2.254;2023-09-08T12:05:01;13.00;13.00;10.00
75960;PMS7003;64644;48.914;2.254;2023-09-08T12:07:27;13.75;12.75;10.25
75960;PMS7003;64644;48.914;2.254;2023-09-08T12:09:53;13.00;13.00;10.00
75960;PMS7003;64644;48.914;2.254;2023-09-08T12:12:18;13.25;12.00;8.75
75960;PMS7003;64644;48.914;2.254;2023-09-08T12:14:44;12.00;12.00;9.00
75960;PMS7003;64644;48.914;2.254;2023-09-08T12:17:09;10.00;9.75;8.25
75960;PMS7003;64644;48.914;2.254;2023-09-08T12:19:34;13.75;12.50;9.00
75960;PMS7003;64644;48.914;2.254;2023-09-08T12:22:04;10.75;9.25;8.00
75960;PMS7003;64644;48.914;2.254;2023-09-08T12:24:50;13.00;11.75;9.00
75960;PMS7003;64644;48.914;2.254;2023-09-08T12:27:22;13.00;13.00;11.00
75960;PMS7003;64644;48.914;2.254;2023-09-08T12:29:58;10.75;10.75;9.00
75960;PMS7003;64644;48.914;2.254;2023-09-08T12:32:26;10.00;9.75;7.25
75960;PMS7003;64644;48.914;2.254;2023-09-08T12:34:54;10.25;10.00;7.25
75960;PMS7003;64644;48.914;2.254;2023-09-08T12:37:23;12.00;11.00;9.00
75960;PMS7003;64644;48.914;2.254;2023-09-08T12:39:50;13.25;10.25;7.50
75960;PMS7003;64644;48.914;2.254;2023-09-08T12:42:16;12.00;10.00;7.50
75960;PMS7003;64644;48.914;2.254;2023-09-08T12:44:42;11.00;11.00;7.25
75960;PMS7003;64644;48.914;2.254;2023-09-08T12:47:09;9.75;9.50;8.00
75960;PMS7003;64644;48.914;2.254;2023-09-08T12:49:37;8.75;8.50;7.00
75960;PMS7003;64644;48.914;2.254;2023-09-08T12:52:03;10.75;10.75;8.25
75960;PMS7003;64644;48.914;2.254;2023-09-08T12:54:28;8.50;8.50;6.75
75960;PMS7003;64644;48.914;2.254;2023-09-08T12:56:54;10.25;9.00;7.75
75960;PMS7003;64644;48.914;2.254;2023-09-08T12:59:19;12.00;10.50;9.00
75960;PMS7003;64644;48.914;2.254;2023-09-08T13:01:44;11.75;11.75;9.50
75960;PMS7003;64644;48.914;2.254;2023-09-08T13:04:10;10.25;9.25;8.25
75960;PMS7003;64644;48.914;2.254;2023-09-08T13:06:35;12.25;11.00;8.25
75960;PMS7003;64644;48.914;2.254;2023-09-08T13:09:00;10.25;10.00;7.50
75960;PMS7003;64644;48.914;2.254;2023-09-08T13:11:26;10.75;10.75;8.00
75960;PMS7003;64644;48.914;2.254;2023-09-08T13:13:51;11.00;10.25;7.75
75960;PMS7003;64644;48.914;2.254;2023-09-08T13:16:17;13.25;11.00;8.00
75960;PMS7003;64644;48.914;2.254;2023-09-08T13:18:42;9.75;9.25;7.00
75960;PMS7003;64644;48.914;2.254;2023-09-08T13:21:10;12.25;9.50;7.75
75960;PMS7003;64644;48.914;2.254;2023-09-08T13:23:35;9.25;8.75;6.25
75960;PMS7003;64644;48.914;2.254;2023-09-08T13:26:01;9.00;7.50;6.00
75960;PMS7003;64644;48.914;2.254;2023-09-08T13:28:26;9.00;9.00;7.25
75960;PMS7003;64644;48.914;2.254;2023-09-08T13:30:51;10.00;10.00;7.50
75960;PMS7003;64644;48.914;2.254;2023-09-08T13:33:17;11.75;10.75;7.00
75960;PMS7003;64644;48.914;2.254;2023-09-08T13:35:42;10.25;9.25;9.00
75960;PMS7003;64644;48.914;2.254;2023-09-08T13:38:08;8.25;8.25;7.75
75960;PMS7003;64644;48.914;2.254;2023-09-08T13:40:33;11.50;11.00;9.00
75960;PMS7003;64644;48.914;2.254;2023-09-08T13:42:58;11.25;10.50;8.75
75960;PMS7003;64644;48.914;2.254;2023-09-08T13:45:25;14.25;12.75;7.50
75960;PMS7003;64644;48.914;2.254;2023-09-08T13:47:51;11.25;10.00;8.25
75960;PMS7003;64644;48.914;2.254;2023-09-08T13:50:16;8.00;8.00;7.00
75960;PMS7003;64644;48.914;2.254;2023-09-08T13:52:41;10.25;8.25;7.00